createdAt,value
2019-05-29T00:00:36.314Z,2.27
2019-05-29T00:03:06.139Z,2.17
2019-05-29T00:05:34.868Z,2.77
2019-05-29T00:08:03.309Z,2.00
2019-05-29T00:10:31.754Z,2.10
2019-05-29T00:13:00.233Z,2.30
2019-05-29T00:15:28.729Z,2.30
2019-05-29T00:17:57.175Z,2.13
2019-05-29T00:20:25.604Z,1.90
2019-05-29T00:22:54.069Z,2.07
2019-05-29T00:25:22.534Z,2.27
2019-05-29T00:27:50.996Z,2.10
2019-05-29T00:30:19.530Z,2.37
2019-05-29T00:32:47.984Z,2.47
2019-05-29T00:35:16.489Z,2.00
2019-05-29T00:37:44.989Z,2.33
2019-05-29T00:40:14.961Z,2.20
2019-05-29T00:42:43.654Z,2.00
2019-05-29T00:45:13.385Z,2.00
2019-05-29T00:47:41.990Z,2.20
2019-05-29T00:50:10.485Z,2.00
2019-05-29T00:52:39.004Z,2.30
2019-05-29T00:55:08.597Z,1.93
2019-05-29T00:57:37.307Z,2.10
2019-05-29T01:00:06.084Z,2.10
2019-05-29T01:02:34.653Z,2.17
2019-05-29T01:05:03.077Z,2.70
2019-05-29T01:07:31.533Z,1.83
2019-05-29T01:09:59.986Z,2.30
2019-05-29T01:12:28.458Z,2.13
2019-05-29T01:14:56.919Z,2.00
2019-05-29T01:17:25.423Z,2.13
2019-05-29T01:19:54.418Z,2.50
2019-05-29T01:22:22.885Z,2.07
2019-05-29T01:24:51.361Z,2.17
2019-05-29T01:27:20.838Z,2.40
2019-05-29T01:29:49.441Z,3.40
2019-05-29T01:32:17.865Z,2.40
2019-05-29T01:34:46.325Z,2.53
2019-05-29T01:37:16.010Z,2.93
2019-05-29T01:39:44.572Z,2.50
2019-05-29T01:42:13.021Z,2.23
2019-05-29T01:44:41.457Z,2.33
2019-05-29T01:47:09.921Z,2.97
2019-05-29T01:49:38.353Z,3.20
2019-05-29T01:52:06.852Z,2.70
2019-05-29T01:54:35.296Z,3.20
2019-05-29T01:57:04.120Z,3.20
2019-05-29T01:59:34.967Z,2.93
2019-05-29T02:02:03.413Z,2.80
2019-05-29T02:04:31.893Z,3.27
2019-05-29T02:07:00.360Z,3.17
2019-05-29T02:09:28.849Z,3.67
2019-05-29T02:11:57.329Z,3.40
2019-05-29T02:14:26.888Z,3.90
2019-05-29T02:16:55.597Z,3.60
2019-05-29T02:19:24.115Z,4.03
2019-05-29T02:21:52.627Z,3.77
2019-05-29T02:24:21.248Z,4.30
2019-05-29T02:26:49.672Z,3.50
2019-05-29T02:29:18.613Z,3.93
2019-05-29T02:31:47.238Z,4.43
2019-05-29T02:34:15.674Z,3.60
2019-05-29T02:36:44.134Z,4.00
2019-05-29T02:39:12.571Z,3.93
2019-05-29T02:41:41.048Z,3.87
2019-05-29T02:44:09.511Z,4.37
2019-05-29T02:46:38.037Z,4.67
2019-05-29T02:49:06.937Z,4.33
2019-05-29T02:51:35.385Z,3.93
2019-05-29T02:54:04.146Z,3.87
2019-05-29T02:56:35.570Z,3.80
2019-05-29T02:59:04.041Z,4.17
2019-05-29T03:01:32.522Z,3.90
2019-05-29T03:13:54.477Z,3.60
2019-05-29T03:16:35.591Z,4.60
2019-05-29T03:21:32.479Z,4.40
2019-05-29T03:24:01.789Z,5.10
2019-05-29T03:31:30.947Z,4.83
2019-05-29T04:11:59.924Z,7.33
2019-05-29T04:17:00.007Z,8.85
2019-05-29T04:21:57.881Z,8.53
2019-05-29T04:24:27.918Z,8.43
2019-05-29T04:26:56.523Z,9.40
2019-05-29T04:29:24.972Z,9.30
2019-05-29T04:31:53.457Z,9.10
2019-05-29T04:34:22.948Z,8.43
2019-05-29T04:36:51.468Z,9.00
2019-05-29T04:39:20.045Z,10.30
2019-05-29T04:41:48.765Z,10.33
2019-05-29T04:44:17.627Z,10.80
2019-05-29T04:46:46.080Z,10.30
2019-05-29T04:49:14.552Z,10.47
2019-05-29T04:51:43.024Z,9.43
2019-05-29T04:54:11.546Z,9.57
2019-05-29T04:56:40.345Z,8.20
2019-05-29T04:59:08.829Z,7.80
2019-05-29T05:01:37.310Z,7.83
2019-05-29T05:04:05.781Z,7.20
2019-05-29T05:06:35.304Z,6.90
2019-05-29T05:09:05.101Z,6.17
2019-05-29T05:11:33.624Z,6.37
2019-05-29T05:14:02.105Z,5.00
2019-05-29T05:16:31.656Z,5.43
2019-05-29T05:19:00.375Z,5.17
2019-05-29T05:21:29.812Z,5.20
2019-05-29T05:23:58.452Z,5.10
2019-05-29T05:26:26.901Z,5.27
2019-05-29T05:28:55.520Z,4.47
2019-05-29T05:31:24.057Z,4.50
2019-05-29T05:34:11.856Z,4.63
2019-05-29T05:36:41.046Z,4.67
2019-05-29T05:39:09.763Z,4.97
2019-05-29T05:41:38.974Z,4.17
2019-05-29T05:44:07.595Z,4.70
2019-05-29T05:46:37.149Z,5.20
2019-05-29T05:49:05.677Z,4.67
2019-05-29T05:51:38.140Z,4.13
2019-05-29T05:54:04.356Z,4.40
2019-05-29T05:56:33.659Z,4.17
2019-05-29T05:59:02.289Z,3.70
2019-05-29T06:01:31.757Z,4.20
2019-05-29T06:04:00.411Z,3.67
2019-05-29T06:06:28.909Z,4.07
2019-05-29T06:08:57.389Z,4.13
2019-05-29T06:11:25.885Z,4.33
2019-05-29T06:13:54.776Z,3.67
2019-05-29T06:16:23.286Z,4.63
2019-05-29T06:18:51.751Z,4.20
2019-05-29T06:21:21.232Z,4.37
2019-05-29T06:23:49.731Z,3.60
2019-05-29T06:26:18.196Z,4.03
2019-05-29T06:28:46.689Z,3.90
2019-05-29T06:31:15.137Z,3.60
2019-05-29T06:33:44.122Z,3.83
2019-05-29T06:36:13.003Z,3.77
2019-05-29T06:38:42.216Z,3.93
2019-05-29T06:41:10.898Z,3.73
2019-05-29T06:43:39.966Z,3.57
2019-05-29T06:46:08.573Z,4.17
2019-05-29T06:48:46.332Z,3.17
2019-05-29T06:51:07.305Z,2.57
2019-05-29T06:53:35.830Z,2.33
2019-05-29T06:56:04.410Z,2.10
2019-05-29T06:58:32.934Z,2.57
2019-05-29T07:01:01.427Z,1.60
2019-05-29T07:03:29.878Z,1.83
2019-05-29T07:05:58.346Z,1.97
2019-05-29T07:08:48.276Z,1.67
2019-05-29T07:11:16.375Z,2.63
2019-05-29T07:13:47.491Z,1.90
2019-05-29T07:16:15.035Z,1.73
2019-05-29T07:19:20.515Z,2.23
2019-05-29T07:21:13.742Z,2.07
2019-05-29T07:23:45.160Z,1.73
2019-05-29T07:26:12.478Z,2.43
2019-05-29T07:28:58.876Z,1.90
2019-05-29T07:31:11.171Z,1.83
2019-05-29T07:33:39.635Z,1.57
2019-05-29T07:36:08.189Z,1.90
2019-05-29T07:38:37.720Z,2.10
2019-05-29T07:41:06.419Z,2.00
2019-05-29T07:43:34.888Z,1.80
2019-05-29T07:46:03.385Z,1.87
2019-05-29T07:48:31.881Z,2.33
2019-05-29T07:51:07.007Z,2.40
2019-05-29T07:53:33.606Z,2.10
2019-05-29T07:56:03.838Z,2.73
2019-05-29T07:58:32.282Z,2.27
2019-05-29T08:01:11.690Z,2.20
2019-05-29T08:03:31.062Z,2.40
2019-05-29T08:06:01.700Z,2.13
2019-05-29T08:08:30.342Z,2.30
2019-05-29T08:10:58.862Z,2.33
2019-05-29T08:13:27.353Z,3.00
2019-05-29T08:16:02.548Z,2.43
2019-05-29T08:18:25.992Z,2.00
2019-05-29T08:20:54.547Z,2.00
2019-05-29T08:23:23.006Z,2.47
2019-05-29T08:25:51.902Z,2.50
2019-05-29T08:28:21.081Z,2.60
2019-05-29T08:30:54.109Z,2.60
2019-05-29T08:33:20.103Z,2.27
2019-05-29T08:35:55.664Z,2.70
2019-05-29T08:38:19.026Z,2.30
2019-05-29T08:40:47.596Z,2.47
2019-05-29T08:43:16.070Z,2.13
2019-05-29T08:45:45.507Z,1.97
2019-05-29T08:48:14.178Z,1.83
2019-05-29T08:50:43.628Z,2.30
2019-05-29T08:53:12.399Z,1.83
2019-05-29T08:55:41.986Z,1.97
2019-05-29T08:58:10.576Z,2.23
2019-05-29T09:00:39.044Z,2.03
2019-05-29T09:03:07.472Z,2.20
2019-05-29T09:06:08.339Z,2.60
2019-05-29T09:08:25.756Z,2.20
2019-05-29T09:10:54.596Z,2.30
2019-05-29T09:13:23.160Z,2.60
2019-05-29T09:15:51.881Z,2.57
2019-05-29T09:18:21.720Z,2.43
2019-05-29T09:21:02.784Z,2.37
2019-05-29T09:23:20.970Z,2.50
2019-05-29T09:25:49.891Z,2.90
2019-05-29T09:28:19.155Z,3.03
2019-05-29T09:30:47.634Z,2.90
2019-05-29T09:33:18.746Z,3.10
2019-05-29T09:35:46.657Z,3.07
2019-05-29T09:38:15.721Z,2.97
2019-05-29T09:40:45.203Z,3.57
2019-05-29T09:43:15.041Z,2.90
2019-05-29T09:45:43.844Z,3.30
2019-05-29T09:48:12.301Z,3.20
2019-05-29T09:50:50.285Z,2.90
2019-05-29T09:53:10.939Z,3.43
2019-05-29T09:55:39.426Z,3.30
2019-05-29T09:58:07.880Z,3.60
2019-05-29T10:00:36.324Z,3.50
2019-05-29T10:03:04.799Z,3.17
2019-05-29T10:05:33.274Z,4.27
2019-05-29T10:08:02.398Z,3.30
2019-05-29T10:10:32.191Z,3.20
2019-05-29T10:13:02.722Z,3.20
2019-05-29T10:15:31.177Z,3.23
2019-05-29T10:18:00.613Z,4.13
2019-05-29T10:20:29.285Z,3.00
2019-05-29T10:22:58.943Z,3.40
2019-05-29T10:25:27.609Z,3.90
2019-05-29T10:27:58.841Z,3.87
2019-05-29T10:30:48.163Z,4.40
2019-05-29T10:33:16.794Z,4.10
2019-05-29T10:35:46.674Z,3.87
2019-05-29T10:38:15.734Z,3.50
2019-05-29T10:40:47.153Z,4.30
2019-05-29T10:43:14.568Z,3.73
2019-05-29T10:45:43.510Z,3.47
2019-05-29T10:48:12.164Z,3.90
2019-05-29T10:50:40.617Z,3.73
2019-05-29T10:53:09.100Z,3.47
2019-05-29T10:55:37.602Z,3.70
2019-05-29T10:58:06.083Z,4.00
2019-05-29T11:00:38.593Z,3.53
2019-05-29T11:03:05.120Z,4.00
2019-05-29T11:05:33.594Z,4.47
2019-05-29T11:08:02.130Z,4.73
2019-05-29T11:10:30.613Z,4.87
2019-05-29T11:12:59.135Z,4.03
2019-05-29T11:15:27.627Z,4.60
2019-05-29T11:17:57.299Z,3.43
2019-05-29T11:20:27.498Z,4.40
2019-05-29T11:22:55.962Z,4.83
2019-05-29T11:25:27.542Z,4.33
2019-05-29T11:27:54.883Z,3.60
2019-05-29T11:30:23.439Z,4.90
2019-05-29T11:32:54.637Z,4.47
2019-05-29T11:35:22.177Z,5.53
2019-05-29T11:37:54.668Z,5.20
2019-05-29T11:40:23.274Z,5.63
2019-05-29T11:42:52.809Z,5.20
2019-05-29T11:45:21.456Z,5.43
2019-05-29T11:47:51.470Z,6.37
2019-05-29T11:50:20.439Z,6.20
2019-05-29T11:52:50.196Z,5.73
2019-05-29T11:55:18.881Z,5.80
2019-05-29T11:57:47.361Z,6.13
2019-05-29T12:00:20.104Z,6.50
2019-05-29T12:02:46.143Z,7.37
2019-05-29T12:05:14.640Z,6.27
2019-05-29T12:07:43.121Z,6.50
2019-05-29T12:10:12.718Z,6.87
2019-05-29T12:12:41.257Z,6.43
2019-05-29T12:15:14.464Z,7.03
2019-05-29T12:17:40.402Z,6.53
2019-05-29T12:20:26.465Z,6.77
2019-05-29T12:22:39.443Z,6.93
2019-05-29T12:25:07.991Z,7.47
2019-05-29T12:27:36.450Z,7.27
2019-05-29T12:30:06.501Z,7.40
2019-05-29T12:32:34.963Z,6.67
2019-05-29T12:35:03.729Z,8.10
2019-05-29T12:37:32.265Z,7.83
2019-05-29T12:40:01.894Z,8.27
2019-05-29T12:42:30.485Z,9.47
2019-05-29T12:44:59.573Z,9.33
2019-05-29T12:47:28.223Z,9.90
2019-05-29T12:49:57.658Z,11.67
2019-05-29T12:52:26.360Z,13.40
2019-05-29T12:54:55.858Z,12.53
2019-05-29T12:57:24.544Z,13.87
2019-05-29T12:59:57.986Z,13.67
2019-05-29T13:02:26.700Z,13.50
2019-05-29T13:05:19.291Z,13.23
2019-05-29T13:07:25.420Z,12.90
2019-05-29T13:09:54.297Z,11.93
2019-05-29T13:12:22.858Z,10.93
2019-05-29T13:14:51.368Z,9.60
2019-05-29T13:17:19.817Z,9.80
2019-05-29T13:19:48.351Z,11.30
2019-05-29T13:22:16.859Z,11.00
2019-05-29T13:24:45.313Z,12.00
2019-05-29T13:27:13.774Z,12.30
2019-05-29T13:29:42.248Z,10.77
2019-05-29T13:32:10.749Z,11.67
2019-05-29T13:34:39.210Z,11.57
2019-05-29T13:37:09.687Z,10.43
2019-05-29T13:39:38.096Z,11.77
2019-05-29T13:42:11.283Z,11.60
2019-05-29T13:44:36.836Z,10.23
2019-05-29T13:47:06.242Z,8.80
2019-05-29T13:49:34.827Z,8.40
2019-05-29T13:52:08.249Z,9.07
2019-05-29T13:54:33.557Z,9.63
2019-05-29T13:57:02.746Z,10.27
2019-05-29T13:59:32.305Z,10.70
2019-05-29T14:02:04.164Z,8.33
2019-05-29T14:04:30.966Z,9.83
2019-05-29T14:07:00.360Z,8.83
2019-05-29T14:09:28.882Z,8.93
2019-05-29T14:11:58.853Z,10.10
2019-05-29T14:14:47.152Z,7.30
2019-05-29T14:17:15.621Z,9.90
2019-05-29T14:19:44.161Z,10.73
2019-05-29T14:22:14.622Z,9.77
2019-05-29T14:24:42.821Z,10.90
2019-05-29T14:27:12.721Z,11.20
2019-05-29T14:29:41.389Z,12.53
2019-05-29T14:32:29.412Z,11.20
2019-05-29T14:35:11.151Z,10.53
2019-05-29T14:37:39.807Z,9.97
2019-05-29T14:40:09.714Z,11.10
2019-05-29T14:42:38.364Z,9.40
2019-05-29T14:45:08.355Z,11.50
2019-05-29T14:59:55.886Z,12.25
2019-05-29T15:09:50.640Z,9.68
2019-05-29T15:17:15.390Z,9.83
2019-05-29T15:19:44.177Z,10.43
2019-05-29T15:22:14.217Z,11.10
2019-05-29T15:27:12.321Z,10.10
2019-05-29T15:29:40.823Z,10.20
2019-05-29T15:32:10.360Z,10.27
2019-05-29T15:37:10.242Z,8.90
2019-05-29T15:39:36.792Z,8.70
2019-05-29T15:42:06.707Z,9.07
2019-05-29T15:54:26.577Z,9.60
2019-05-29T15:56:55.050Z,9.48
2019-05-29T15:59:23.521Z,10.00
2019-05-29T16:01:52.310Z,10.30
2019-05-29T16:04:20.781Z,9.70
2019-05-29T16:06:49.262Z,10.03
2019-05-29T16:09:18.725Z,10.00
2019-05-29T16:11:47.406Z,10.32
2019-05-29T16:14:16.799Z,10.03
2019-05-29T16:16:45.634Z,9.05
2019-05-29T16:19:14.153Z,10.23
2019-05-29T16:21:42.765Z,9.80
2019-05-29T16:24:12.619Z,9.43
2019-05-29T16:26:41.240Z,9.93
2019-05-29T16:29:10.449Z,9.23
2019-05-29T16:31:39.093Z,9.30
2019-05-29T16:34:07.671Z,9.05
2019-05-29T16:36:36.240Z,10.15
2019-05-29T16:39:06.469Z,9.73
2019-05-29T16:41:34.944Z,9.43
2019-05-29T16:44:03.435Z,9.13
2019-05-29T16:46:31.911Z,8.40
2019-05-29T16:49:00.398Z,8.40
2019-05-29T16:51:48.194Z,8.53
2019-05-29T16:54:17.176Z,9.00
2019-05-29T16:56:45.735Z,8.20
2019-05-29T16:59:14.908Z,7.95
2019-05-29T17:01:43.499Z,8.23
2019-05-29T17:04:11.987Z,9.43
2019-05-29T17:06:40.456Z,8.78
2019-05-29T17:09:09.575Z,8.85
2019-05-29T17:11:38.110Z,8.88
2019-05-29T17:14:06.577Z,14.28
2019-05-29T17:16:35.069Z,14.65
2019-05-29T17:19:03.542Z,14.35
2019-05-29T17:21:32.045Z,13.53
2019-05-29T17:24:00.526Z,12.75
2019-05-29T17:26:29.039Z,12.88
2019-05-29T17:28:57.509Z,12.83
2019-05-29T17:31:25.987Z,13.58
2019-05-29T17:33:54.796Z,13.08
2019-05-29T17:36:26.739Z,13.35
2019-05-29T17:38:53.531Z,13.08
2019-05-29T17:41:25.331Z,13.50
2019-05-29T17:43:54.001Z,13.20
2019-05-29T17:46:23.790Z,13.00
2019-05-29T17:48:52.468Z,14.30
2019-05-29T17:51:21.859Z,14.33
2019-05-29T17:53:50.474Z,16.45
2019-05-29T17:56:33.602Z,15.43
2019-05-29T17:58:49.212Z,15.90
2019-05-29T18:01:18.229Z,14.40
2019-05-29T18:03:46.849Z,13.40
2019-05-29T18:06:16.298Z,11.50
2019-05-29T18:08:45.070Z,10.40
2019-05-29T18:11:13.610Z,6.17
2019-05-29T18:13:42.081Z,4.30
2019-05-29T18:16:10.876Z,3.77
2019-05-29T18:18:39.410Z,3.10
2019-05-29T18:21:07.938Z,2.17
2019-05-29T18:23:36.446Z,2.20
2019-05-29T18:26:05.221Z,1.87
2019-05-29T18:28:33.738Z,2.10
2019-05-29T18:31:04.077Z,2.47
2019-05-29T18:33:32.545Z,2.20
2019-05-29T18:36:01.037Z,2.22
2019-05-29T18:38:29.554Z,1.90
2019-05-29T18:40:58.105Z,1.95
2019-05-29T18:43:26.709Z,2.17
2019-05-29T18:45:55.285Z,2.12
2019-05-29T18:48:23.739Z,2.07
2019-05-29T18:50:52.353Z,2.30
2019-05-29T18:53:20.856Z,2.30
2019-05-29T18:55:49.353Z,2.20
2019-05-29T18:58:17.845Z,2.13
2019-05-29T19:00:46.349Z,2.40
2019-05-29T19:03:14.865Z,2.02
2019-05-29T19:05:43.728Z,2.62
2019-05-29T19:08:12.222Z,2.12
2019-05-29T19:10:40.705Z,2.33
2019-05-29T19:13:09.184Z,2.30
2019-05-29T19:15:37.649Z,2.02
2019-05-29T19:18:06.145Z,1.87
2019-05-29T19:20:34.617Z,2.05
2019-05-29T19:23:03.106Z,1.77
2019-05-29T19:25:32.930Z,1.80
2019-05-29T19:28:01.550Z,2.00
2019-05-29T19:30:32.950Z,1.80
2019-05-29T19:33:01.618Z,1.85
2019-05-29T19:35:30.116Z,1.75
2019-05-29T19:37:58.588Z,1.80
2019-05-29T19:40:28.105Z,2.20
2019-05-29T19:42:56.645Z,1.70
2019-05-29T19:45:26.446Z,1.30
2019-05-29T19:47:55.215Z,1.70
2019-05-29T19:50:24.657Z,1.87
2019-05-29T19:52:53.216Z,1.60
2019-05-29T19:55:21.823Z,1.65
2019-05-29T19:57:55.852Z,1.42
2019-05-29T20:00:20.487Z,1.62
2019-05-29T20:02:49.254Z,1.77
2019-05-29T20:05:17.773Z,2.00
2019-05-29T20:07:46.268Z,1.50
2019-05-29T20:10:14.748Z,1.90
2019-05-29T20:12:43.254Z,1.60
2019-05-29T20:15:11.817Z,1.70
2019-05-29T20:17:40.294Z,1.40
2019-05-29T20:20:08.782Z,1.57
2019-05-29T20:22:37.285Z,1.70
2019-05-29T20:25:05.989Z,2.12
2019-05-29T20:27:34.488Z,1.92
2019-05-29T20:30:04.676Z,1.80
2019-05-29T20:32:34.555Z,1.55
2019-05-29T20:35:03.512Z,1.40
2019-05-29T20:37:32.278Z,1.90
2019-05-29T20:40:00.823Z,1.67
2019-05-29T20:42:30.103Z,1.55
2019-05-29T20:44:58.777Z,1.95
2019-05-29T20:47:27.276Z,2.07
2019-05-29T20:49:55.929Z,1.95
2019-05-29T20:52:43.850Z,1.85
2019-05-29T20:55:12.398Z,2.37
2019-05-29T20:57:42.067Z,1.82
2019-05-29T21:00:11.062Z,2.10
2019-05-29T21:02:40.449Z,2.20
2019-05-29T21:05:09.264Z,2.10
2019-05-29T21:07:38.836Z,2.00
2019-05-29T21:10:07.435Z,2.10
2019-05-29T21:12:37.029Z,2.05
2019-05-29T21:15:06.094Z,2.20
2019-05-29T21:17:35.636Z,2.52
2019-05-29T21:20:04.648Z,2.12
2019-05-29T21:22:34.422Z,2.35
2019-05-29T21:25:07.794Z,2.55
2019-05-29T21:27:33.312Z,2.07
2019-05-29T21:30:01.890Z,1.85
2019-05-29T21:34:47.544Z,1.85
2019-05-29T21:37:16.070Z,2.00
2019-05-29T21:39:44.675Z,1.80
2019-05-29T21:42:13.141Z,2.12
2019-05-29T21:44:42.766Z,2.00
2019-05-29T21:47:11.820Z,1.93
2019-05-29T21:49:41.004Z,2.30
2019-05-29T21:52:09.653Z,2.10
2019-05-29T21:54:39.334Z,1.80
2019-05-29T21:57:07.950Z,2.22
2019-05-29T21:59:37.597Z,2.22
2019-05-29T22:02:06.675Z,1.98
2019-05-29T22:04:35.480Z,2.35
2019-05-29T22:07:04.131Z,2.00
2019-05-29T22:09:32.617Z,1.60
2019-05-29T22:12:01.093Z,1.77
2019-05-29T22:14:29.576Z,2.00
2019-05-29T22:16:59.136Z,1.85
2019-05-29T22:19:27.857Z,1.60
2019-05-29T22:21:57.095Z,2.08
2019-05-29T22:24:25.679Z,1.82
2019-05-29T22:26:55.189Z,2.02
2019-05-29T22:29:23.764Z,1.57
2019-05-29T22:31:53.333Z,1.90
2019-05-29T22:34:22.011Z,2.10
2019-05-29T22:36:51.430Z,2.17
2019-05-29T22:39:20.135Z,2.50
2019-05-29T22:41:48.618Z,2.08
2019-05-29T22:44:17.080Z,2.37
2019-05-29T22:46:45.546Z,2.30
2019-05-29T22:49:14.035Z,2.65
2019-05-29T22:51:42.493Z,2.70
2019-05-29T22:54:11.381Z,2.55
2019-05-29T22:56:39.862Z,2.97
2019-05-29T22:59:08.363Z,2.65
2019-05-29T23:01:56.421Z,2.33
2019-05-29T23:04:25.067Z,2.30
2019-05-29T23:06:54.192Z,2.60
2019-05-29T23:09:22.750Z,2.40
2019-05-29T23:11:52.160Z,3.00
2019-05-29T23:14:20.767Z,2.80
2019-05-29T23:16:49.242Z,2.62
2019-05-29T23:19:17.723Z,2.95
2019-05-29T23:21:46.185Z,2.90
2019-05-29T23:24:14.638Z,3.02
2019-05-29T23:26:43.121Z,2.95
2019-05-29T23:29:11.614Z,2.77
2019-05-29T23:31:40.097Z,2.75
2019-05-29T23:34:08.554Z,3.10
2019-05-29T23:36:57.108Z,3.02
2019-05-29T23:39:25.827Z,3.10
2019-05-29T23:41:57.057Z,3.30
2019-05-29T23:44:25.872Z,3.65
2019-05-29T23:46:55.347Z,3.80
2019-05-29T23:49:23.959Z,3.92
2019-05-29T23:51:53.543Z,4.37
2019-05-29T23:54:22.304Z,4.37
2019-05-29T23:56:53.769Z,4.25
2019-05-29T23:59:22.437Z,4.78
